Terminal Aerodrome Forecast
Issued by NWS Wilmington, OH

Home | Current Version | Previous Version | Text Only | Print | Product List | Glossary On
Versions: 1 2 3 4 5 6 7 8 9 10 11 12 13 14 15 16 17 18 19 20 21 22 23 24 25 26 27 28 29 30 31 32 33 34
912
FTUS41 KILN 190538
TAFDAY
TAF
KDAY 190538Z 1906/2006 22006KT 2SM BR OVC005
      TEMPO 1906/1910 1/4SM FG OVC003
     FM191100 VRB03KT P6SM OVC250
     FM191600 14005KT P6SM OVC250
     FM192000 11007KT P6SM OVC090
     FM200300 10008KT 4SM -RA OVC015=

USA.gov is the U.S. government's official web portal to all federal, state and local government web resources and services.